Time;durP1;ratioP1;P1;durP2;ratioP2;P2;SDS_P1;SDS_P2;PMS_P1;PMS_P2;Temp;Humidity;BMP_temperature;BMP_pressure;BME280_temperature;BME280_humidity;BME280_pressure;Samples;Min_cycle;Max_cycle;Signal;HPM_P1;HPM_P2
2022/08/26 00:00:57;;;;;;;;;;;27.90;95.10;;;;;;5087981;28;19940;-56
2022/08/26 00:03:23;;;;;;;;;;;27.90;95.10;;;;;;5087519;28;20192;-59
2022/08/26 00:05:49;;;;;;;;;;;27.90;95.10;;;;;;5087998;28;19908;-56
2022/08/26 00:08:16;;;;;;;;;;;27.90;95.20;;;;;;5087455;28;19951;-54
2022/08/26 00:10:43;;;;;;;;;;;27.80;95.10;;;;;;5088013;28;19983;-56
2022/08/26 00:13:09;;;;;;;;;;;27.80;95.10;;;;;;5087400;28;19960;-57
2022/08/26 00:15:36;;;;;;;;;;;27.80;94.90;;;;;;5087819;28;20195;-55
2022/08/26 00:18:02;;;;;;;;;;;27.80;94.90;;;;;;5087443;28;19915;-55
2022/08/26 00:20:29;;;;;;;;;;;27.80;94.80;;;;;;5087976;28;19904;-53
2022/08/26 00:22:56;;;;;;;;;;;27.80;94.70;;;;;;5087287;28;19920;-54
2022/08/26 00:25:22;;;;;;;;;;;27.80;94.80;;;;;;5087675;28;19944;-54
2022/08/26 00:27:48;;;;;;;;;;;27.80;94.70;;;;;;5087300;28;20282;-56
2022/08/26 00:30:16;;;;;;;;;;;27.80;94.70;;;;;;5087346;28;19971;-56
2022/08/26 00:32:42;;;;;;;;;;;27.70;94.60;;;;;;5087288;28;19918;-55
2022/08/26 00:35:10;;;;;;;;;;;27.70;94.60;;;;;;5087209;28;19915;-54
2022/08/26 00:37:37;;;;;;;;;;;27.70;94.60;;;;;;5086934;28;19909;-53
2022/08/26 00:40:04;;;;;;;;;;;27.70;94.50;;;;;;5087229;28;20193;-55
2022/08/26 00:42:30;;;;;;;;;;;27.70;94.50;;;;;;5087033;28;19908;-53
2022/08/26 00:44:56;;;;;;;;;;;27.70;94.40;;;;;;5087105;28;19905;-58
2022/08/26 00:47:34;;;;;;;;;;;27.70;94.40;;;;;;5086721;28;19913;-55
2022/08/26 00:50:01;;;;;;;;;;;27.70;94.40;;;;;;5085749;28;20156;-58
2022/08/26 00:52:28;;;;;;;;;;;27.60;94.40;;;;;;5086799;28;19919;-58
2022/08/26 00:55:00;;;;;;;;;;;27.60;94.30;;;;;;5097016;28;19935;-59
2022/08/26 00:57:26;;;;;;;;;;;27.60;94.30;;;;;;5097410;28;20095;-58
2022/08/26 00:59:55;;;;;;;;;;;27.50;94.30;;;;;;5104896;28;19908;-59
2022/08/26 01:02:22;;;;;;;;;;;27.40;94.30;;;;;;5089634;28;20220;-59
2022/08/26 01:04:59;;;;;;;;;;;27.30;94.40;;;;;;5092219;28;19954;-60
2022/08/26 01:07:26;;;;;;;;;;;27.30;94.30;;;;;;5103992;28;19956;-59
2022/08/26 01:09:53;;;;;;;;;;;27.30;94.40;;;;;;5086706;28;20119;-61
2022/08/26 01:12:19;;;;;;;;;;;27.30;94.30;;;;;;5085809;28;19939;-58
2022/08/26 01:14:46;;;;;;;;;;;27.30;94.20;;;;;;5091719;28;19946;-62
2022/08/26 01:17:12;;;;;;;;;;;27.20;94.20;;;;;;5092797;28;20250;-58
2022/08/26 01:19:46;;;;;;;;;;;27.20;94.20;;;;;;5106860;28;19908;-58
2022/08/26 01:22:29;;;;;;;;;;;27.20;94.20;;;;;;5097529;28;19915;-58
2022/08/26 01:24:57;;;;;;;;;;;27.20;94.00;;;;;;5086883;28;19987;-59
2022/08/26 01:27:23;;;;;;;;;;;27.10;94.20;;;;;;5085892;28;19915;-60
2022/08/26 01:29:50;;;;;;;;;;;27.10;94.10;;;;;;5091226;28;19940;-56
2022/08/26 01:32:18;;;;;;;;;;;27.00;94.20;;;;;;5095492;28;19912;-58
2022/08/26 01:34:45;;;;;;;;;;;27.00;94.10;;;;;;5098792;28;19953;-59
2022/08/26 01:37:16;;;;;;;;;;;26.90;94.20;;;;;;5106262;28;19912;-59
2022/08/26 01:39:47;;;;;;;;;;;26.90;93.90;;;;;;5106309;28;19915;-59
2022/08/26 01:42:14;;;;;;;;;;;26.90;93.90;;;;;;5105885;28;19912;-59
2022/08/26 01:45:07;;;;;;;;;;;26.80;93.80;;;;;;5106181;28;19949;-58
2022/08/26 01:47:35;;;;;;;;;;;26.80;93.60;;;;;;5102157;28;19916;-62
2022/08/26 01:50:05;;;;;;;;;;;26.80;93.60;;;;;;5106069;28;19938;-59
2022/08/26 01:52:35;;;;;;;;;;;26.80;93.60;;;;;;5105739;28;19912;-59
2022/08/26 01:55:01;;;;;;;;;;;26.80;93.60;;;;;;5105774;28;19979;-60
2022/08/26 01:57:28;;;;;;;;;;;26.80;93.50;;;;;;5105878;28;19908;-57
2022/08/26 01:59:56;;;;;;;;;;;26.80;93.40;;;;;;5103599;28;19916;-59
2022/08/26 02:02:23;;;;;;;;;;;26.80;93.40;;;;;;5105787;28;19975;-58
2022/08/26 02:04:52;;;;;;;;;;;26.80;93.30;;;;;;5104069;28;19908;-58
2022/08/26 02:07:19;;;;;;;;;;;26.70;93.10;;;;;;5105468;28;19916;-60
2022/08/26 02:09:48;;;;;;;;;;;26.70;93.20;;;;;;5104708;28;19908;-59
2022/08/26 02:12:15;;;;;;;;;;;26.70;93.10;;;;;;5099071;28;20238;-59
2022/08/26 02:14:45;;;;;;;;;;;26.60;93.10;;;;;;5092746;28;19908;-58
2022/08/26 02:17:12;;;;;;;;;;;26.70;93.30;;;;;;5085048;28;20114;-58
2022/08/26 02:19:40;;;;;;;;;;;26.70;93.20;;;;;;5095630;28;19948;-57
2022/08/26 02:22:10;;;;;;;;;;;26.70;93.10;;;;;;5095743;28;19912;-60
2022/08/26 02:24:46;;;;;;;;;;;26.70;93.10;;;;;;5102613;28;19916;-58
2022/08/26 02:27:13;;;;;;;;;;;26.70;93.10;;;;;;5096565;28;19927;-56
2022/08/26 02:29:41;;;;;;;;;;;26.70;93.00;;;;;;5105365;28;19912;-56
2022/08/26 02:32:07;;;;;;;;;;;26.60;92.90;;;;;;5105092;28;19915;-58
2022/08/26 02:34:34;;;;;;;;;;;26.60;92.90;;;;;;5104233;28;20160;-59
2022/08/26 02:37:03;;;;;;;;;;;26.60;92.70;;;;;;5100776;28;19947;-58
2022/08/26 02:39:30;;;;;;;;;;;26.60;92.70;;;;;;5093747;28;19946;-58
2022/08/26 02:41:56;;;;;;;;;;;26.60;92.80;;;;;;5100584;28;19916;-60
2022/08/26 02:44:23;;;;;;;;;;;26.60;92.80;;;;;;5104559;28;19908;-58
2022/08/26 02:46:49;;;;;;;;;;;26.60;92.80;;;;;;5084621;28;19955;-59
2022/08/26 02:49:15;;;;;;;;;;;26.60;92.80;;;;;;5092444;28;19947;-54
2022/08/26 02:51:42;;;;;;;;;;;26.60;92.80;;;;;;5104222;28;19941;-52
2022/08/26 02:54:08;;;;;;;;;;;26.60;92.80;;;;;;5104768;28;19920;-52
2022/08/26 02:56:34;;;;;;;;;;;26.70;92.80;;;;;;5103386;28;19908;-52
2022/08/26 02:59:00;;;;;;;;;;;26.80;92.80;;;;;;5103045;28;19966;-55
2022/08/26 03:01:28;;;;;;;;;;;26.70;92.60;;;;;;5093366;28;19919;-55
2022/08/26 03:03:56;;;;;;;;;;;26.80;92.70;;;;;;5103267;28;19908;-53
2022/08/26 03:06:23;;;;;;;;;;;26.80;92.50;;;;;;5104801;28;19916;-52
2022/08/26 03:08:49;;;;;;;;;;;26.80;92.50;;;;;;5104538;28;20188;-51
2022/08/26 03:11:17;;;;;;;;;;;26.80;92.40;;;;;;5103250;28;19935;-56
2022/08/26 03:13:43;;;;;;;;;;;26.90;92.30;;;;;;5103895;28;19924;-54
2022/08/26 03:16:10;;;;;;;;;;;26.80;92.20;;;;;;5101998;28;19908;-53
2022/08/26 03:18:37;;;;;;;;;;;26.90;92.20;;;;;;5101544;28;19920;-52
2022/08/26 03:21:10;;;;;;;;;;;26.80;92.20;;;;;;5104890;28;20006;-53
2022/08/26 03:23:37;;;;;;;;;;;26.80;92.20;;;;;;5104524;28;19912;-53
2022/08/26 03:26:04;;;;;;;;;;;26.80;92.10;;;;;;5098284;28;19912;-53
2022/08/26 03:28:31;;;;;;;;;;;26.90;92.30;;;;;;5104276;28;19935;-55
2022/08/26 03:30:57;;;;;;;;;;;26.90;92.30;;;;;;5104833;28;20180;-56
2022/08/26 03:33:24;;;;;;;;;;;26.90;92.20;;;;;;5104275;28;20100;-53
2022/08/26 03:35:51;;;;;;;;;;;26.90;92.10;;;;;;5104940;28;19920;-53
2022/08/26 03:38:21;;;;;;;;;;;26.80;92.00;;;;;;5104551;28;19954;-56
2022/08/26 03:40:48;;;;;;;;;;;26.80;92.10;;;;;;5104630;28;19915;-53
2022/08/26 03:43:15;;;;;;;;;;;26.80;92.10;;;;;;5104296;28;19951;-54
2022/08/26 03:45:42;;;;;;;;;;;26.80;92.10;;;;;;5104556;28;20104;-61
2022/08/26 03:48:09;;;;;;;;;;;26.80;92.10;;;;;;5104102;28;19919;-53
2022/08/26 03:50:35;;;;;;;;;;;26.80;92.10;;;;;;5104545;28;19962;-55
2022/08/26 03:53:02;;;;;;;;;;;26.80;92.00;;;;;;5104199;28;19954;-56
2022/08/26 03:55:33;;;;;;;;;;;26.80;92.20;;;;;;5104528;28;19931;-59
2022/08/26 03:57:59;;;;;;;;;;;26.80;91.90;;;;;;5104187;28;19908;-56
2022/08/26 04:00:26;;;;;;;;;;;26.80;91.90;;;;;;5103821;28;19975;-54
2022/08/26 04:02:52;;;;;;;;;;;26.80;92.00;;;;;;5104047;28;19912;-57
2022/08/26 04:05:19;;;;;;;;;;;26.80;92.00;;;;;;5104238;28;20160;-54
2022/08/26 04:07:45;;;;;;;;;;;26.80;92.00;;;;;;5104223;28;20142;-56
2022/08/26 04:10:13;;;;;;;;;;;26.70;91.90;;;;;;5095857;28;19938;-55
2022/08/26 04:12:40;;;;;;;;;;;26.70;91.90;;;;;;5104086;28;19920;-57
2022/08/26 04:15:08;;;;;;;;;;;26.70;91.90;;;;;;5104226;28;19908;-55
2022/08/26 04:17:34;;;;;;;;;;;26.80;91.80;;;;;;5104049;28;19947;-56
2022/08/26 04:20:00;;;;;;;;;;;26.70;91.80;;;;;;5104062;28;19915;-55
2022/08/26 04:22:27;;;;;;;;;;;26.70;91.80;;;;;;5104028;28;19913;-56
2022/08/26 04:24:53;;;;;;;;;;;26.70;91.70;;;;;;5099098;28;19913;-53
2022/08/26 04:27:19;;;;;;;;;;;26.70;91.90;;;;;;5107478;28;19952;-54
2022/08/26 04:29:46;;;;;;;;;;;26.70;91.90;;;;;;5107923;28;19908;-54
2022/08/26 04:32:12;;;;;;;;;;;26.70;91.90;;;;;;5107465;28;19991;-56
2022/08/26 04:34:38;;;;;;;;;;;26.70;91.90;;;;;;5107441;28;19908;-55
2022/08/26 04:37:05;;;;;;;;;;;26.70;92.00;;;;;;5104580;28;19912;-57
2022/08/26 04:39:31;;;;;;;;;;;26.70;92.00;;;;;;5090090;28;19975;-55
2022/08/26 04:41:57;;;;;;;;;;;26.70;92.00;;;;;;5094345;28;19920;-56
2022/08/26 04:44:25;;;;;;;;;;;26.60;92.00;;;;;;5086555;28;19942;-53
2022/08/26 04:46:52;;;;;;;;;;;26.60;92.00;;;;;;5101226;28;19990;-56
2022/08/26 04:49:19;;;;;;;;;;;26.70;91.90;;;;;;5106917;28;19908;-55
2022/08/26 04:51:46;;;;;;;;;;;26.60;91.90;;;;;;5107187;28;19931;-60
2022/08/26 04:54:12;;;;;;;;;;;26.60;91.90;;;;;;5107050;28;19908;-57
2022/08/26 04:56:41;;;;;;;;;;;26.60;91.90;;;;;;5107248;28;20099;-56
2022/08/26 04:59:09;;;;;;;;;;;26.60;91.80;;;;;;5107051;28;19926;-53
2022/08/26 05:01:35;;;;;;;;;;;26.60;91.80;;;;;;5107175;28;19912;-53
2022/08/26 05:04:01;;;;;;;;;;;26.60;91.80;;;;;;5104826;28;20206;-54
2022/08/26 05:06:27;;;;;;;;;;;26.60;91.70;;;;;;5100652;28;20147;-61
2022/08/26 05:08:54;;;;;;;;;;;26.60;91.60;;;;;;5105994;28;19908;-55
2022/08/26 05:11:20;;;;;;;;;;;26.60;91.60;;;;;;5099429;28;20120;-54
2022/08/26 05:13:46;;;;;;;;;;;26.50;91.60;;;;;;5106852;28;19966;-55
2022/08/26 05:16:14;;;;;;;;;;;26.60;91.60;;;;;;5106778;28;20245;-53
2022/08/26 05:18:42;;;;;;;;;;;26.60;91.60;;;;;;5106631;28;19908;-55
2022/08/26 05:21:14;;;;;;;;;;;26.60;91.70;;;;;;5107140;28;19912;-57
2022/08/26 05:23:41;;;;;;;;;;;26.60;91.70;;;;;;5106609;28;19912;-56
2022/08/26 05:26:08;;;;;;;;;;;26.60;91.60;;;;;;5106843;28;19920;-58
2022/08/26 05:28:34;;;;;;;;;;;26.50;91.70;;;;;;5106599;28;20160;-60
2022/08/26 05:31:01;;;;;;;;;;;26.60;91.60;;;;;;5106415;28;19938;-54
2022/08/26 05:33:28;;;;;;;;;;;26.60;91.60;;;;;;5106434;28;20179;-57
2022/08/26 05:35:54;;;;;;;;;;;26.60;91.50;;;;;;5106042;28;19908;-54
2022/08/26 05:38:20;;;;;;;;;;;26.60;91.50;;;;;;5106506;28;20073;-53
2022/08/26 05:40:48;;;;;;;;;;;26.50;91.60;;;;;;5106594;28;19911;-54
2022/08/26 05:43:14;;;;;;;;;;;26.50;91.50;;;;;;5106232;28;19986;-56
2022/08/26 05:45:42;;;;;;;;;;;26.50;91.50;;;;;;5106678;28;19919;-58
2022/08/26 05:48:09;;;;;;;;;;;26.50;91.50;;;;;;5105961;28;19943;-57
2022/08/26 05:50:37;;;;;;;;;;;26.50;91.50;;;;;;5106450;28;19908;-54
2022/08/26 05:53:03;;;;;;;;;;;26.50;91.60;;;;;;5104633;28;19915;-56
2022/08/26 05:55:29;;;;;;;;;;;26.50;91.70;;;;;;5106238;28;19950;-54
2022/08/26 05:57:56;;;;;;;;;;;26.50;91.60;;;;;;5106132;28;19913;-56
2022/08/26 06:00:22;;;;;;;;;;;26.50;91.70;;;;;;5105937;28;19908;-56
2022/08/26 06:02:48;;;;;;;;;;;26.40;91.70;;;;;;5105559;28;20104;-54
2022/08/26 06:05:14;;;;;;;;;;;26.40;91.70;;;;;;5087063;28;19904;-61
2022/08/26 06:10:25;;;;;;;;;;;26.40;91.70;;;;;;5079073;28;19932;-54
2022/08/26 06:12:51;;;;;;;;;;;26.40;91.70;;;;;;5085319;28;19920;-54
2022/08/26 06:15:17;;;;;;;;;;;26.40;91.70;;;;;;5085608;28;19908;-54
2022/08/26 06:17:43;;;;;;;;;;;26.40;91.80;;;;;;5085127;28;20252;-55
2022/08/26 06:20:09;;;;;;;;;;;26.40;91.80;;;;;;5085439;28;19908;-55
2022/08/26 06:25:38;;;;;;;;;;;26.30;91.80;;;;;;5097781;28;20203;-58
2022/08/26 06:28:05;;;;;;;;;;;26.30;91.80;;;;;;5105319;28;19987;-54
2022/08/26 06:30:32;;;;;;;;;;;26.30;91.90;;;;;;5105834;28;20338;-53
2022/08/26 06:32:59;;;;;;;;;;;26.30;91.90;;;;;;5105263;28;19913;-60
2022/08/26 06:35:26;;;;;;;;;;;26.30;91.90;;;;;;5105680;28;20074;-54
2022/08/26 06:37:52;;;;;;;;;;;26.30;91.90;;;;;;5105413;28;19943;-54
2022/08/26 06:40:19;;;;;;;;;;;26.30;92.00;;;;;;5105630;28;19904;-54
2022/08/26 06:42:45;;;;;;;;;;;26.30;92.00;;;;;;5104975;28;19912;-54
2022/08/26 06:45:11;;;;;;;;;;;26.30;92.00;;;;;;5105097;28;19953;-58
2022/08/26 06:47:38;;;;;;;;;;;26.30;92.10;;;;;;5105026;28;19916;-54
2022/08/26 06:50:04;;;;;;;;;;;26.30;92.00;;;;;;5105165;28;19908;-58
2022/08/26 06:52:30;;;;;;;;;;;26.30;92.00;;;;;;5094723;28;19947;-56
2022/08/26 06:54:56;;;;;;;;;;;26.30;92.10;;;;;;5084775;28;19987;-55
2022/08/26 06:57:22;;;;;;;;;;;26.30;92.10;;;;;;5084468;28;19912;-55
2022/08/26 06:59:49;;;;;;;;;;;26.30;92.10;;;;;;5084528;28;19915;-58
2022/08/26 07:02:15;;;;;;;;;;;26.30;92.20;;;;;;5084447;28;19912;-55
2022/08/26 07:04:41;;;;;;;;;;;26.30;92.10;;;;;;5095549;28;19904;-56
2022/08/26 07:07:07;;;;;;;;;;;26.30;92.20;;;;;;5104441;28;19916;-57
2022/08/26 07:09:34;;;;;;;;;;;26.30;92.20;;;;;;5104927;28;20203;-57
2022/08/26 07:12:01;;;;;;;;;;;26.30;92.30;;;;;;5104367;28;20212;-56
2022/08/26 07:14:27;;;;;;;;;;;26.30;92.40;;;;;;5104486;28;19912;-54
2022/08/26 07:16:53;;;;;;;;;;;26.20;92.40;;;;;;5104643;28;19908;-55
2022/08/26 07:19:20;;;;;;;;;;;26.30;92.40;;;;;;5104593;28;19992;-54
2022/08/26 07:21:46;;;;;;;;;;;26.20;92.40;;;;;;5104416;28;19946;-57
2022/08/26 07:24:12;;;;;;;;;;;26.20;92.50;;;;;;5104627;28;20045;-54
2022/08/26 07:26:39;;;;;;;;;;;26.20;92.60;;;;;;5104410;28;19916;-55
2022/08/26 07:29:05;;;;;;;;;;;26.20;92.50;;;;;;5101826;28;19942;-55
2022/08/26 07:31:34;;;;;;;;;;;26.20;92.50;;;;;;5098650;28;19912;-54
2022/08/26 07:34:00;;;;;;;;;;;26.20;92.60;;;;;;5104262;28;19911;-53
2022/08/26 07:36:29;;;;;;;;;;;26.20;92.60;;;;;;5104296;28;19916;-64
2022/08/26 07:38:56;;;;;;;;;;;26.20;92.60;;;;;;5103302;28;19940;-56
2022/08/26 07:41:23;;;;;;;;;;;26.20;92.60;;;;;;5097385;28;19932;-55
2022/08/26 07:43:49;;;;;;;;;;;26.20;92.60;;;;;;5103860;28;19946;-53
2022/08/26 07:46:20;;;;;;;;;;;26.10;92.70;;;;;;5096178;28;19916;-56
2022/08/26 07:48:46;;;;;;;;;;;26.10;92.70;;;;;;5104191;28;20209;-56
2022/08/26 07:51:17;;;;;;;;;;;26.10;92.80;;;;;;5104201;28;19935;-56
2022/08/26 07:53:44;;;;;;;;;;;26.10;92.80;;;;;;5104254;28;20223;-53
2022/08/26 07:56:10;;;;;;;;;;;26.10;92.90;;;;;;5104656;28;19914;-62
2022/08/26 07:58:36;;;;;;;;;;;26.10;92.80;;;;;;5105406;28;19908;-53
2022/08/26 08:01:03;;;;;;;;;;;26.10;92.80;;;;;;5108625;28;19916;-55
2022/08/26 08:03:29;;;;;;;;;;;26.10;92.80;;;;;;5108232;28;19975;-55
2022/08/26 08:05:55;;;;;;;;;;;26.10;92.90;;;;;;5108584;28;20108;-57
2022/08/26 08:08:21;;;;;;;;;;;26.10;92.90;;;;;;5107859;28;20081;-56
2022/08/26 08:10:47;;;;;;;;;;;26.10;92.90;;;;;;5108348;28;19943;-56
2022/08/26 08:13:13;;;;;;;;;;;26.10;93.00;;;;;;5107812;28;19950;-58
2022/08/26 08:15:40;;;;;;;;;;;26.10;93.00;;;;;;5108207;28;19908;-54
2022/08/26 08:18:06;;;;;;;;;;;26.10;93.10;;;;;;5107662;28;19919;-53
2022/08/26 08:20:33;;;;;;;;;;;26.10;93.10;;;;;;5108287;28;19911;-53
2022/08/26 08:23:00;;;;;;;;;;;26.10;93.10;;;;;;5107680;28;19908;-54
2022/08/26 08:25:27;;;;;;;;;;;26.10;93.10;;;;;;5107957;28;19919;-57
2022/08/26 08:27:53;;;;;;;;;;;26.10;93.00;;;;;;5107625;28;19936;-58
2022/08/26 08:30:20;;;;;;;;;;;26.10;93.00;;;;;;5107903;28;19912;-56
2022/08/26 08:32:46;;;;;;;;;;;26.10;92.90;;;;;;5107744;28;19919;-55
2022/08/26 08:35:14;;;;;;;;;;;26.10;93.00;;;;;;5107946;28;19908;-54
2022/08/26 08:37:40;;;;;;;;;;;26.10;93.00;;;;;;5107431;28;20078;-58
2022/08/26 08:40:08;;;;;;;;;;;26.10;93.00;;;;;;5107852;28;20207;-54
2022/08/26 08:42:44;;;;;;;;;;;26.10;93.00;;;;;;5107406;28;19908;-54
2022/08/26 08:45:22;;;;;;;;;;;26.10;93.00;;;;;;5107456;28;19908;-56
2022/08/26 08:47:49;;;;;;;;;;;26.10;93.00;;;;;;5107366;28;19908;-56
2022/08/26 08:50:21;;;;;;;;;;;26.10;93.00;;;;;;5107398;28;19908;-55
2022/08/26 08:52:53;;;;;;;;;;;26.10;93.10;;;;;;5107415;28;19908;-58
2022/08/26 08:55:20;;;;;;;;;;;26.10;93.10;;;;;;5107536;28;19908;-57
2022/08/26 08:57:46;;;;;;;;;;;26.10;93.20;;;;;;5107061;28;19912;-55
2022/08/26 09:00:16;;;;;;;;;;;26.10;93.20;;;;;;5098829;28;19904;-54
2022/08/26 09:02:42;;;;;;;;;;;26.10;93.20;;;;;;5105918;28;19908;-56
2022/08/26 09:05:27;;;;;;;;;;;26.10;93.20;;;;;;5107195;28;19946;-57
2022/08/26 09:07:58;;;;;;;;;;;26.10;93.10;;;;;;5106867;28;19913;-54
2022/08/26 09:10:24;;;;;;;;;;;26.10;93.20;;;;;;5105996;28;19904;-60
2022/08/26 09:12:51;;;;;;;;;;;26.10;93.20;;;;;;5106758;28;19924;-53
2022/08/26 09:15:40;;;;;;;;;;;26.10;93.10;;;;;;5107037;28;19908;-54
2022/08/26 09:18:24;;;;;;;;;;;26.10;93.20;;;;;;5096001;28;19912;-54
2022/08/26 09:21:04;;;;;;;;;;;26.10;93.20;;;;;;5106935;28;20181;-54
2022/08/26 09:23:31;;;;;;;;;;;26.10;93.20;;;;;;5106627;28;19919;-56
2022/08/26 09:26:00;;;;;;;;;;;26.10;93.30;;;;;;5107027;28;19930;-55
2022/08/26 09:28:27;;;;;;;;;;;26.00;93.30;;;;;;5106500;28;19927;-60
2022/08/26 09:31:00;;;;;;;;;;;26.10;93.40;;;;;;5106987;28;19930;-54
2022/08/26 09:33:28;;;;;;;;;;;26.10;93.40;;;;;;5106211;28;19912;-56
2022/08/26 09:36:10;;;;;;;;;;;26.10;93.30;;;;;;5106798;28;19911;-54
2022/08/26 09:38:37;;;;;;;;;;;26.00;93.30;;;;;;5106192;28;20192;-54
2022/08/26 09:41:04;;;;;;;;;;;26.10;93.40;;;;;;5106892;28;20182;-56
2022/08/26 09:43:31;;;;;;;;;;;26.10;93.40;;;;;;5106241;28;19946;-57
2022/08/26 09:46:15;;;;;;;;;;;26.00;93.40;;;;;;5106580;28;20097;-55
2022/08/26 09:48:42;;;;;;;;;;;26.10;93.40;;;;;;5106053;28;19916;-55
2022/08/26 09:51:23;;;;;;;;;;;26.00;93.30;;;;;;5106559;28;19975;-58
2022/08/26 09:53:51;;;;;;;;;;;26.10;93.40;;;;;;5105853;28;19908;-54
2022/08/26 09:56:28;;;;;;;;;;;26.10;93.30;;;;;;5105983;28;19912;-53
2022/08/26 09:58:55;;;;;;;;;;;26.00;93.40;;;;;;5105868;28;19905;-57
2022/08/26 10:01:30;;;;;;;;;;;26.10;93.50;;;;;;5105698;28;19955;-54
2022/08/26 10:04:03;;;;;;;;;;;26.00;93.60;;;;;;5105616;28;19911;-53
2022/08/26 10:06:29;;;;;;;;;;;26.00;93.70;;;;;;5105793;28;19962;-54
2022/08/26 10:09:00;;;;;;;;;;;26.00;93.70;;;;;;5105673;28;20207;-55
2022/08/26 10:11:33;;;;;;;;;;;26.10;93.70;;;;;;5105369;28;19915;-55
2022/08/26 10:14:03;;;;;;;;;;;26.10;93.80;;;;;;5105509;28;19916;-56
2022/08/26 10:16:29;;;;;;;;;;;26.00;93.80;;;;;;5105448;28;20290;-55
2022/08/26 10:18:59;;;;;;;;;;;26.00;93.80;;;;;;5105765;28;19923;-54
2022/08/26 10:21:37;;;;;;;;;;;26.00;93.90;;;;;;5105253;28;19912;-62
2022/08/26 10:24:05;;;;;;;;;;;26.00;94.00;;;;;;5105078;28;19908;-56
2022/08/26 10:26:39;;;;;;;;;;;26.00;94.00;;;;;;5105530;28;19923;-54
2022/08/26 10:29:18;;;;;;;;;;;26.00;94.10;;;;;;5105342;28;20005;-54
2022/08/26 10:31:50;;;;;;;;;;;26.00;94.20;;;;;;5105246;28;19918;-56
2022/08/26 10:34:17;;;;;;;;;;;26.00;94.40;;;;;;5105005;28;19908;-57
2022/08/26 10:36:49;;;;;;;;;;;26.00;94.50;;;;;;5104949;28;19908;-58
2022/08/26 10:39:36;;;;;;;;;;;26.00;94.60;;;;;;5105154;28;19947;-55
2022/08/26 10:42:22;;;;;;;;;;;26.00;94.70;;;;;;5104462;28;19908;-53
2022/08/26 10:44:50;;;;;;;;;;;26.00;94.90;;;;;;5104788;28;20203;-55
2022/08/26 10:47:45;;;;;;;;;;;26.00;95.10;;;;;;5104904;28;19970;-55
2022/08/26 10:50:11;;;;;;;;;;;26.00;95.20;;;;;;5087611;28;20228;-56
2022/08/26 10:52:45;;;;;;;;;;;25.90;95.30;;;;;;5104907;28;20219;-54
2022/08/26 10:55:16;;;;;;;;;;;26.00;95.40;;;;;;5105094;28;20188;-56
2022/08/26 10:57:42;;;;;;;;;;;25.90;95.40;;;;;;5104714;28;19914;-56
2022/08/26 11:01:40;;;;;;;;;;;26.00;95.50;;;;;;5104950;28;20034;-55
2022/08/26 11:02:58;;;;;;;;;;;25.90;95.60;;;;;;5104450;28;19908;-55
2022/08/26 11:05:25;;;;;;;;;;;25.90;95.50;;;;;;5105258;28;19908;-55
2022/08/26 11:07:54;;;;;;;;;;;26.00;95.70;;;;;;5104661;28;19908;-56
2022/08/26 11:10:21;;;;;;;;;;;26.00;95.60;;;;;;5104839;28;20188;-55
2022/08/26 11:12:49;;;;;;;;;;;26.00;95.60;;;;;;5104386;28;20016;-55
2022/08/26 11:15:28;;;;;;;;;;;26.00;95.70;;;;;;5104726;28;20069;-55
2022/08/26 11:17:56;;;;;;;;;;;26.00;95.70;;;;;;5104578;28;19979;-53
2022/08/26 11:20:22;;;;;;;;;;;26.00;95.80;;;;;;5104826;28;19942;-54
2022/08/26 11:22:49;;;;;;;;;;;26.00;95.80;;;;;;5104275;28;19912;-54
2022/08/26 11:25:16;;;;;;;;;;;26.00;95.80;;;;;;5104617;28;19946;-54
2022/08/26 11:27:45;;;;;;;;;;;26.00;95.90;;;;;;5104482;28;20219;-49
2022/08/26 11:30:11;;;;;;;;;;;25.90;95.90;;;;;;5104545;28;19973;-54
2022/08/26 11:32:40;;;;;;;;;;;25.90;96.20;;;;;;5104199;28;19918;-57
2022/08/26 11:35:10;;;;;;;;;;;25.80;96.20;;;;;;5103812;28;19985;-55
2022/08/26 11:37:39;;;;;;;;;;;25.80;96.30;;;;;;5104198;28;20222;-54
2022/08/26 11:40:13;;;;;;;;;;;25.80;96.20;;;;;;5104823;28;19939;-55
2022/08/26 11:42:41;;;;;;;;;;;25.90;96.20;;;;;;5104486;28;19967;-53
2022/08/26 11:45:16;;;;;;;;;;;25.90;96.30;;;;;;5104495;28;19934;-53
2022/08/26 11:47:43;;;;;;;;;;;25.90;96.30;;;;;;5104439;28;19912;-57
2022/08/26 11:50:11;;;;;;;;;;;25.90;96.30;;;;;;5102850;28;20163;-53
2022/08/26 11:52:37;;;;;;;;;;;25.90;96.40;;;;;;5102611;28;19916;-55
2022/08/26 11:55:04;;;;;;;;;;;25.90;96.40;;;;;;5102672;28;20209;-56
2022/08/26 11:57:32;;;;;;;;;;;25.90;96.40;;;;;;5102560;28;20232;-53
2022/08/26 11:59:58;;;;;;;;;;;25.90;96.50;;;;;;5102878;28;19995;-54
2022/08/26 12:02:26;;;;;;;;;;;25.90;96.50;;;;;;5103129;28;20135;-55
2022/08/26 12:04:53;;;;;;;;;;;25.90;96.50;;;;;;5103875;28;19983;-53
2022/08/26 12:07:26;;;;;;;;;;;25.90;96.60;;;;;;5104138;28;20147;-61
2022/08/26 12:10:00;;;;;;;;;;;25.90;96.60;;;;;;5104193;28;20181;-56
2022/08/26 12:12:37;;;;;;;;;;;25.90;96.60;;;;;;5103642;28;19916;-54
2022/08/26 12:15:17;;;;;;;;;;;25.90;96.50;;;;;;5104201;28;20138;-56
2022/08/26 12:17:44;;;;;;;;;;;25.90;96.50;;;;;;5103870;28;19942;-54
2022/08/26 12:20:44;;;;;;;;;;;25.90;96.50;;;;;;5103615;28;19954;-56
2022/08/26 12:23:20;;;;;;;;;;;25.90;96.50;;;;;;5103836;28;19915;-55
2022/08/26 12:25:47;;;;;;;;;;;25.90;96.50;;;;;;5104224;28;19961;-53
2022/08/26 12:28:13;;;;;;;;;;;25.90;96.50;;;;;;5103862;28;19915;-52
2022/08/26 12:30:39;;;;;;;;;;;26.00;96.50;;;;;;5104367;28;20172;-55
2022/08/26 12:33:11;;;;;;;;;;;25.90;96.50;;;;;;5103765;28;19916;-60
2022/08/26 12:35:39;;;;;;;;;;;25.90;96.50;;;;;;5103718;28;20249;-54
2022/08/26 12:38:07;;;;;;;;;;;25.90;96.50;;;;;;5103708;28;19908;-58
2022/08/26 12:40:38;;;;;;;;;;;25.90;96.50;;;;;;5104255;28;19908;-54
2022/08/26 12:43:05;;;;;;;;;;;25.90;96.50;;;;;;5103601;28;19950;-54
2022/08/26 12:45:36;;;;;;;;;;;25.90;96.50;;;;;;5106705;28;19916;-57
2022/08/26 12:48:09;;;;;;;;;;;25.90;96.30;;;;;;5107235;28;19908;-54
2022/08/26 12:50:36;;;;;;;;;;;25.90;96.30;;;;;;5107547;28;19908;-55
2022/08/26 12:53:04;;;;;;;;;;;25.90;96.30;;;;;;5106845;28;19945;-54
2022/08/26 12:55:41;;;;;;;;;;;25.90;96.30;;;;;;5107450;28;20065;-54
2022/08/26 12:58:22;;;;;;;;;;;25.90;96.20;;;;;;5107347;28;20108;-52
2022/08/26 13:00:50;;;;;;;;;;;25.90;96.30;;;;;;5107370;28;19908;-53
2022/08/26 13:03:31;;;;;;;;;;;25.90;96.30;;;;;;5107103;28;19983;-52
2022/08/26 13:06:30;;;;;;;;;;;25.80;96.30;;;;;;5107428;28;19932;-54
2022/08/26 13:08:56;;;;;;;;;;;25.90;96.40;;;;;;5091099;28;19912;-53
2022/08/26 13:11:32;;;;;;;;;;;25.90;96.40;;;;;;5106735;28;19983;-53
2022/08/26 13:13:59;;;;;;;;;;;25.90;96.50;;;;;;5106635;28;19975;-53
2022/08/26 13:16:26;;;;;;;;;;;25.90;96.50;;;;;;5106907;28;19912;-55
2022/08/26 13:18:55;;;;;;;;;;;25.90;96.50;;;;;;5106674;28;19905;-53
2022/08/26 13:21:23;;;;;;;;;;;25.90;96.50;;;;;;5106818;28;19912;-52
2022/08/26 13:23:50;;;;;;;;;;;26.00;96.60;;;;;;5106690;28;20265;-54
2022/08/26 13:26:17;;;;;;;;;;;26.00;96.70;;;;;;5106516;28;20255;-53
2022/08/26 13:28:43;;;;;;;;;;;26.00;96.60;;;;;;5106534;28;20010;-53
2022/08/26 13:31:10;;;;;;;;;;;26.10;96.70;;;;;;5107097;28;19904;-52
2022/08/26 13:33:36;;;;;;;;;;;26.10;96.80;;;;;;5106532;28;19955;-56
2022/08/26 13:36:02;;;;;;;;;;;26.10;96.70;;;;;;5106844;28;19915;-53
2022/08/26 13:38:29;;;;;;;;;;;26.20;96.70;;;;;;5106516;28;19948;-55
2022/08/26 13:40:58;;;;;;;;;;;26.30;96.80;;;;;;5106709;28;19911;-54
2022/08/26 13:43:27;;;;;;;;;;;26.30;96.70;;;;;;5106595;28;20211;-54
2022/08/26 13:45:54;;;;;;;;;;;26.30;96.70;;;;;;5106515;28;19919;-53
2022/08/26 13:48:21;;;;;;;;;;;26.40;96.70;;;;;;5106156;28;19923;-52
2022/08/26 13:50:48;;;;;;;;;;;26.40;96.70;;;;;;5106654;28;19912;-56
2022/08/26 13:53:15;;;;;;;;;;;26.40;96.70;;;;;;5106110;28;19908;-59
2022/08/26 13:55:42;;;;;;;;;;;26.40;96.70;;;;;;5105965;28;19904;-52
2022/08/26 13:58:08;;;;;;;;;;;26.40;96.70;;;;;;5105915;28;20011;-52
2022/08/26 14:00:35;;;;;;;;;;;26.40;96.60;;;;;;5106377;28;19908;-52
2022/08/26 14:03:01;;;;;;;;;;;26.50;96.50;;;;;;5104287;28;19970;-54
2022/08/26 14:05:27;;;;;;;;;;;26.50;96.50;;;;;;5099984;28;19916;-56
2022/08/26 14:07:55;;;;;;;;;;;26.50;96.60;;;;;;5102457;28;20199;-53
2022/08/26 14:10:22;;;;;;;;;;;26.50;96.40;;;;;;5098019;28;19908;-55
2022/08/26 14:12:49;;;;;;;;;;;26.50;96.40;;;;;;5099243;28;19920;-54
2022/08/26 14:15:15;;;;;;;;;;;26.50;96.20;;;;;;5099850;28;19915;-54
2022/08/26 14:17:42;;;;;;;;;;;26.50;96.20;;;;;;5096101;28;19912;-53
2022/08/26 14:20:11;;;;;;;;;;;26.50;96.10;;;;;;5085498;28;19904;-56
2022/08/26 14:22:41;;;;;;;;;;;26.50;96.00;;;;;;5084555;28;20226;-52
2022/08/26 14:25:09;;;;;;;;;;;26.50;95.90;;;;;;5084974;28;19912;-56
2022/08/26 14:27:35;;;;;;;;;;;26.60;95.90;;;;;;5084975;28;20196;-54
2022/08/26 14:30:01;;;;;;;;;;;26.50;95.90;;;;;;5085353;28;20172;-54